Pagrindinis puslapis
METAR-TAF:

METAR-TAF

Oro uostai :

Clark's Point, Aliaska, Jungtinės Amerikos Valstijos

platuma: 58-50-01N, ilguma: 158-31-46W, Aukštis: 24 m

Dabartinis oras

Ataskaita buvo paskelbta 2 valandos ir 1 minutes, ne 02:56 UTC
Vėjas 5 kt iš Rytų/Pietryčių
Temperatūra -12°C
Drėgmė 78%
Slėgis 1021 hPa
Matomumas: 14.5 km
Apsiniaukę ne aukštis 1300 ft
sniegas

METAR: PFCL 290256Z AUTO 12005KT 9SM -SN OVC013 M12/M15 A3014 RMK AO2 SLP201 P0000 60000 T11221150 56010 FZRANO TSNO

Laikas: 19:57 (04:57 UTC)


TAF: trūkstamas

Orai ataskaitas ir orų prognozės (METAR, TAF).

turimą stotys yra geltonos ir raudonos taškus žemėlapyje.

Perkelti pele per norėdami pamatyti stoties vardą.

Tada spustelėkite, norėdami matyti oro stebėjimo ir prognozės.

Norėdami pakeisti žemėlapį: spustelėkite ant žalios mygtukų su juodo kryžiaus žemyn,; žalią mygtuką su brūkšneliu, jei norite nutolinti; arba žalių rodyklių gretimoms žemėlapius.


METAR-TAF: